createdAt,value
2018-06-09T00:00:07.130Z,3.57
2018-06-09T00:02:34.644Z,2.97
2018-06-09T00:05:03.567Z,3.20
2018-06-09T00:07:31.029Z,3.80
2018-06-09T00:09:58.522Z,3.30
2018-06-09T00:12:25.988Z,3.47
2018-06-09T00:14:53.455Z,2.90
2018-06-09T00:17:20.921Z,3.40
2018-06-09T00:19:48.387Z,3.37
2018-06-09T00:22:15.858Z,2.77
2018-06-09T00:24:44.112Z,2.90
2018-06-09T00:27:11.571Z,3.30
2018-06-09T00:29:39.042Z,3.53
2018-06-09T00:32:06.500Z,3.50
2018-06-09T00:34:33.958Z,2.83
2018-06-09T00:37:02.251Z,2.67
2018-06-09T00:39:29.731Z,3.27
2018-06-09T00:41:57.978Z,3.57
2018-06-09T00:44:25.448Z,2.40
2018-06-09T00:46:52.920Z,3.27
2018-06-09T00:49:20.380Z,2.87
2018-06-09T00:51:47.843Z,2.70
2018-06-09T00:54:15.302Z,2.63
2018-06-09T00:56:42.771Z,2.97
2018-06-09T00:59:10.253Z,2.63
2018-06-09T01:01:39.275Z,2.47
2018-06-09T01:04:06.784Z,3.27
2018-06-09T01:06:34.344Z,2.50
2018-06-09T01:09:01.807Z,2.90
2018-06-09T01:11:29.278Z,2.50
2018-06-09T01:13:56.787Z,2.33
2018-06-09T01:16:24.295Z,3.13
2018-06-09T01:18:52.532Z,2.73
2018-06-09T01:21:20.039Z,2.50
2018-06-09T01:23:47.495Z,2.80
2018-06-09T01:26:15.060Z,3.03
2018-06-09T01:28:42.521Z,2.90
2018-06-09T01:31:10.152Z,3.07
2018-06-09T01:33:37.611Z,3.10
2018-06-09T01:36:05.075Z,2.70
2018-06-09T01:38:32.535Z,2.20
2018-06-09T01:41:00.002Z,2.43
2018-06-09T01:43:27.460Z,2.97
2018-06-09T01:45:54.956Z,2.60
2018-06-09T01:48:22.412Z,3.07
2018-06-09T01:50:49.983Z,3.40
2018-06-09T01:53:17.547Z,3.43
2018-06-09T01:55:44.999Z,2.33
2018-06-09T01:58:12.463Z,3.20
2018-06-09T02:00:39.915Z,2.53
2018-06-09T02:03:07.388Z,3.13
2018-06-09T02:05:34.848Z,3.13
2018-06-09T02:08:02.320Z,3.63
2018-06-09T02:10:29.890Z,2.87
2018-06-09T02:12:57.452Z,2.87
2018-06-09T02:15:25.007Z,2.70
2018-06-09T02:17:52.468Z,2.47
2018-06-09T02:20:19.928Z,2.60
2018-06-09T02:22:47.407Z,2.20
2018-06-09T02:25:14.871Z,2.53
2018-06-09T02:27:42.333Z,2.50
2018-06-09T02:30:09.799Z,2.50
2018-06-09T02:32:37.268Z,3.27
2018-06-09T02:35:04.772Z,2.63
2018-06-09T02:37:32.233Z,3.13
2018-06-09T02:39:59.720Z,2.80
2018-06-09T02:42:27.221Z,2.63
2018-06-09T02:44:55.482Z,2.60
2018-06-09T02:47:22.951Z,3.20
2018-06-09T02:49:50.415Z,2.67
2018-06-09T02:52:17.975Z,3.43
2018-06-09T02:54:45.440Z,3.10
2018-06-09T02:57:12.904Z,3.23
2018-06-09T02:59:40.360Z,3.03
2018-06-09T03:02:07.923Z,2.60
2018-06-09T03:04:35.385Z,2.70
2018-06-09T03:07:02.848Z,2.80
2018-06-09T03:09:30.404Z,2.47
2018-06-09T03:11:57.864Z,3.90
2018-06-09T03:14:25.418Z,2.60
2018-06-09T03:16:52.985Z,2.83
2018-06-09T03:19:20.566Z,3.33
2018-06-09T03:21:48.126Z,3.23
2018-06-09T03:24:15.575Z,2.90
2018-06-09T03:26:43.159Z,3.60
2018-06-09T03:29:10.839Z,3.20
2018-06-09T03:31:38.283Z,2.73
2018-06-09T03:34:05.848Z,4.70
2018-06-09T03:36:33.287Z,3.20
2018-06-09T03:39:00.790Z,3.50
2018-06-09T03:41:28.232Z,3.83
2018-06-09T03:43:55.788Z,2.90
2018-06-09T03:46:23.362Z,3.57
2018-06-09T03:48:50.834Z,3.37
2018-06-09T03:51:18.395Z,2.70
2018-06-09T03:53:45.853Z,2.60
2018-06-09T03:56:13.321Z,3.07
2018-06-09T03:58:40.783Z,3.30
2018-06-09T04:01:09.854Z,2.50
2018-06-09T04:03:37.316Z,2.73
2018-06-09T04:06:04.775Z,3.30
2018-06-09T04:08:32.240Z,3.53
2018-06-09T04:10:59.706Z,3.00
2018-06-09T04:13:27.180Z,2.90
2018-06-09T04:15:54.745Z,2.70
2018-06-09T04:18:22.208Z,3.60
2018-06-09T04:20:49.763Z,3.80
2018-06-09T04:23:17.327Z,3.67
2018-06-09T04:25:44.805Z,3.60
2018-06-09T04:28:12.255Z,3.10
2018-06-09T04:30:39.816Z,3.27
2018-06-09T04:33:07.388Z,4.07
2018-06-09T04:35:34.964Z,3.00
2018-06-09T04:38:02.452Z,3.27
2018-06-09T04:40:30.787Z,3.40
2018-06-09T04:42:58.280Z,3.30
2018-06-09T04:45:26.499Z,3.80
2018-06-09T04:47:53.995Z,4.30
2018-06-09T04:50:21.828Z,3.40
2018-06-09T04:52:49.287Z,3.37
2018-06-09T04:55:16.743Z,3.80
2018-06-09T04:57:44.211Z,4.43
2018-06-09T05:00:11.680Z,4.53
2018-06-09T05:02:39.140Z,3.73
2018-06-09T05:05:06.615Z,3.43
2018-06-09T05:07:34.104Z,2.77
2018-06-09T05:10:01.574Z,3.07
2018-06-09T05:12:29.029Z,3.30
2018-06-09T05:14:56.587Z,3.90
2018-06-09T05:17:24.144Z,3.50
2018-06-09T05:19:51.622Z,3.97
2018-06-09T05:22:19.186Z,3.73
2018-06-09T05:24:46.654Z,4.00
2018-06-09T05:27:14.107Z,4.00
2018-06-09T05:29:41.578Z,3.73
2018-06-09T05:32:09.817Z,4.10
2018-06-09T05:34:37.279Z,3.77
2018-06-09T05:37:04.831Z,4.37
2018-06-09T05:39:32.275Z,3.50
2018-06-09T05:42:00.512Z,3.70
2018-06-09T05:44:27.984Z,4.00
2018-06-09T05:46:55.447Z,3.90
2018-06-09T05:49:22.932Z,3.67
2018-06-09T05:51:51.151Z,4.23
2018-06-09T05:54:18.616Z,4.03
2018-06-09T05:56:46.479Z,3.43
2018-06-09T05:59:13.932Z,2.83
2018-06-09T06:01:41.403Z,3.80
2018-06-09T06:04:08.861Z,3.77
2018-06-09T06:06:36.359Z,4.87
2018-06-09T06:09:03.816Z,3.87
2018-06-09T06:11:31.333Z,3.90
2018-06-09T06:13:58.830Z,3.40
2018-06-09T06:16:26.291Z,3.23
2018-06-09T06:18:53.800Z,4.20
2018-06-09T06:21:21.268Z,3.53
2018-06-09T06:23:49.511Z,4.63
2018-06-09T06:26:16.983Z,4.37
2018-06-09T06:28:44.456Z,3.13
2018-06-09T06:31:11.910Z,4.10
2018-06-09T06:33:39.462Z,4.73
2018-06-09T06:36:07.035Z,3.80
2018-06-09T06:38:34.502Z,4.53
2018-06-09T06:41:02.056Z,3.57
2018-06-09T06:43:29.606Z,4.30
2018-06-09T06:45:57.070Z,4.87
2018-06-09T06:48:24.525Z,3.97
2018-06-09T06:50:51.989Z,4.60
2018-06-09T06:53:19.469Z,3.60
2018-06-09T06:55:47.027Z,4.90
2018-06-09T06:58:14.615Z,5.70
2018-06-09T07:00:42.167Z,4.67
2018-06-09T07:03:09.636Z,4.00
2018-06-09T07:05:37.091Z,4.60
2018-06-09T07:08:04.556Z,4.17
2018-06-09T07:10:32.008Z,3.97
2018-06-09T07:12:59.857Z,4.20
2018-06-09T07:15:27.312Z,4.50
2018-06-09T07:17:55.479Z,5.20
2018-06-09T07:20:22.985Z,5.43
2018-06-09T07:22:50.569Z,4.50
2018-06-09T07:25:18.021Z,4.80
2018-06-09T07:27:46.246Z,5.17
2018-06-09T07:30:13.711Z,5.07
2018-06-09T07:32:41.195Z,4.73
2018-06-09T07:35:08.657Z,4.23
2018-06-09T07:37:36.103Z,5.73
2018-06-09T07:40:03.556Z,5.13
2018-06-09T07:42:31.020Z,5.40
2018-06-09T07:44:58.480Z,4.80
2018-06-09T07:47:25.948Z,5.17
2018-06-09T07:49:53.452Z,4.60
2018-06-09T07:52:21.010Z,4.83
2018-06-09T07:54:48.566Z,5.47
2018-06-09T07:57:16.016Z,5.17
2018-06-09T07:59:43.483Z,5.57
2018-06-09T08:02:10.939Z,4.90
2018-06-09T08:04:38.427Z,5.40
2018-06-09T08:07:05.894Z,5.73
2018-06-09T08:09:33.440Z,5.20
2018-06-09T08:12:00.903Z,3.80
2018-06-09T08:14:28.479Z,5.43
2018-06-09T08:16:55.928Z,5.93
2018-06-09T08:19:23.392Z,5.10
2018-06-09T08:21:50.861Z,5.30
2018-06-09T08:24:19.507Z,5.30
2018-06-09T08:26:46.983Z,6.40
2018-06-09T08:29:32.275Z,5.40
2018-06-09T08:31:59.742Z,5.07
2018-06-09T08:34:27.764Z,4.33
2018-06-09T08:36:55.983Z,5.20
2018-06-09T08:39:23.437Z,4.60
2018-06-09T08:41:50.904Z,5.53
2018-06-09T08:44:18.388Z,5.57
2018-06-09T08:46:45.851Z,6.63
2018-06-09T08:49:13.321Z,5.30
2018-06-09T08:51:40.776Z,4.70
2018-06-09T08:54:08.236Z,5.67
2018-06-09T08:56:35.706Z,5.40
2018-06-09T08:59:03.163Z,4.77
2018-06-09T09:01:30.622Z,6.60
2018-06-09T09:03:58.099Z,6.30
2018-06-09T09:06:25.571Z,5.43
2018-06-09T09:08:53.810Z,6.27
2018-06-09T09:11:21.279Z,5.00
2018-06-09T09:13:48.739Z,5.63
2018-06-09T09:16:16.305Z,5.70
2018-06-09T09:18:43.756Z,5.93
2018-06-09T09:21:11.225Z,4.93
2018-06-09T09:23:38.682Z,5.17
2018-06-09T09:26:06.271Z,5.63
2018-06-09T09:28:33.716Z,5.17
2018-06-09T09:31:01.180Z,5.10
2018-06-09T09:33:28.643Z,5.23
2018-06-09T09:35:56.203Z,6.40
2018-06-09T09:38:23.664Z,5.53
2018-06-09T09:40:51.599Z,5.33
2018-06-09T09:43:19.068Z,4.33
2018-06-09T09:45:46.579Z,5.60
2018-06-09T09:48:14.049Z,5.07
2018-06-09T09:50:42.270Z,5.80
2018-06-09T09:53:09.734Z,5.30
2018-06-09T09:55:37.191Z,4.73
2018-06-09T09:58:04.664Z,4.87
2018-06-09T10:00:32.140Z,4.77
2018-06-09T10:02:59.628Z,4.80
2018-06-09T10:05:27.088Z,6.37
2018-06-09T10:07:54.543Z,4.97
2018-06-09T10:10:22.031Z,5.00
2018-06-09T10:12:50.291Z,5.93
2018-06-09T10:15:19.273Z,4.90
2018-06-09T10:17:46.728Z,5.17
2018-06-09T10:20:14.203Z,4.67
2018-06-09T10:22:41.780Z,4.73
2018-06-09T10:25:09.241Z,4.80
2018-06-09T10:27:36.708Z,5.20
2018-06-09T10:30:04.163Z,5.37
2018-06-09T10:32:31.722Z,4.57
2018-06-09T10:34:59.303Z,4.07
2018-06-09T10:37:26.761Z,5.37
2018-06-09T10:39:54.312Z,6.00
2018-06-09T10:42:21.880Z,5.00
2018-06-09T10:44:49.336Z,5.37
2018-06-09T10:47:17.508Z,4.20
2018-06-09T10:49:44.980Z,4.67
2018-06-09T10:52:12.448Z,5.57
2018-06-09T10:54:40.003Z,5.33
2018-06-09T10:57:07.456Z,4.67
2018-06-09T10:59:34.936Z,5.37
2018-06-09T11:02:02.400Z,4.73
2018-06-09T11:04:30.659Z,4.60
2018-06-09T11:06:58.131Z,5.53
2018-06-09T11:09:25.703Z,4.73
2018-06-09T11:11:53.293Z,5.17
2018-06-09T11:14:21.531Z,4.83
2018-06-09T11:16:48.979Z,4.83
2018-06-09T11:19:16.456Z,5.60
2018-06-09T11:21:43.934Z,4.60
2018-06-09T11:24:11.408Z,5.63
2018-06-09T11:26:38.954Z,5.20
2018-06-09T11:29:06.435Z,5.37
2018-06-09T11:31:34.659Z,4.90
2018-06-09T11:34:02.116Z,4.73
2018-06-09T11:36:29.590Z,4.70
2018-06-09T11:38:57.095Z,4.33
2018-06-09T11:41:25.375Z,4.40
2018-06-09T11:43:53.623Z,4.47
2018-06-09T11:46:21.095Z,4.80
2018-06-09T11:48:48.560Z,5.57
2018-06-09T11:51:16.148Z,4.73
2018-06-09T11:53:44.907Z,4.23
2018-06-09T11:56:12.407Z,5.23
2018-06-09T11:58:39.992Z,4.93
2018-06-09T12:01:07.462Z,4.23
2018-06-09T12:03:34.939Z,4.87
2018-06-09T12:06:02.441Z,4.90
2018-06-09T12:08:29.899Z,4.83
2018-06-09T12:10:57.349Z,4.93
2018-06-09T12:13:24.818Z,5.50
2018-06-09T12:15:52.291Z,5.00
2018-06-09T12:18:19.863Z,5.43
2018-06-09T12:20:48.856Z,4.70
2018-06-09T12:23:16.411Z,4.77
2018-06-09T12:25:43.868Z,4.47
2018-06-09T12:28:11.436Z,4.57
2018-06-09T12:30:38.887Z,4.57
2018-06-09T12:33:06.377Z,4.93
2018-06-09T12:35:33.930Z,5.60
2018-06-09T12:38:01.398Z,3.97
2018-06-09T12:40:28.952Z,4.90
2018-06-09T12:42:56.403Z,4.90
2018-06-09T12:45:23.862Z,4.27
2018-06-09T12:47:51.325Z,4.57
2018-06-09T12:50:18.804Z,4.63
2018-06-09T12:52:46.368Z,4.37
2018-06-09T12:55:13.835Z,4.30
2018-06-09T12:57:41.311Z,5.03
2018-06-09T13:00:08.858Z,3.83
2018-06-09T13:02:36.330Z,4.13
2018-06-09T13:05:03.791Z,4.27
2018-06-09T13:07:32.025Z,4.43
2018-06-09T13:09:59.492Z,4.57
2018-06-09T13:12:26.960Z,4.47
2018-06-09T13:14:54.454Z,4.33
2018-06-09T13:17:22.711Z,4.40
2018-06-09T13:19:50.182Z,4.40
2018-06-09T13:22:17.754Z,3.50
2018-06-09T13:24:45.349Z,4.07
2018-06-09T13:27:13.584Z,4.63
2018-06-09T13:29:41.056Z,4.70
2018-06-09T13:32:08.533Z,4.03
2018-06-09T13:34:36.768Z,4.23
2018-06-09T13:37:04.225Z,4.67
2018-06-09T13:39:31.691Z,5.30
2018-06-09T13:41:59.153Z,4.20
2018-06-09T13:44:26.627Z,4.40
2018-06-09T13:46:54.150Z,4.53
2018-06-09T13:49:21.571Z,3.93
2018-06-09T13:51:49.044Z,4.03
2018-06-09T13:54:16.564Z,4.40
2018-06-09T13:56:44.758Z,4.43
2018-06-09T13:59:12.213Z,4.40
2018-06-09T14:01:39.683Z,4.10
2018-06-09T14:04:07.173Z,3.57
2018-06-09T14:06:34.729Z,3.60
2018-06-09T14:09:02.255Z,3.63
2018-06-09T14:11:29.729Z,4.93
2018-06-09T14:13:57.191Z,3.50
2018-06-09T14:16:24.657Z,3.60
2018-06-09T14:18:52.121Z,3.97
2018-06-09T14:21:19.585Z,3.47
2018-06-09T14:23:47.043Z,3.60
2018-06-09T14:26:14.535Z,3.43
2018-06-09T14:28:41.998Z,3.60
2018-06-09T14:31:09.457Z,3.30
2018-06-09T14:33:36.913Z,3.40
2018-06-09T14:36:04.379Z,3.67
2018-06-09T14:38:32.880Z,3.60
2018-06-09T14:41:00.419Z,3.60
2018-06-09T14:43:27.893Z,3.70
2018-06-09T14:45:55.348Z,3.50
2018-06-09T14:48:22.819Z,3.27
2018-06-09T14:50:50.374Z,3.03
2018-06-09T14:53:17.839Z,3.07
2018-06-09T14:55:45.404Z,3.53
2018-06-09T14:58:12.974Z,3.50
2018-06-09T15:00:40.430Z,3.37
2018-06-09T15:03:07.891Z,3.57
2018-06-09T15:05:35.408Z,3.60
2018-06-09T15:08:03.084Z,3.13
2018-06-09T15:10:30.551Z,3.60
2018-06-09T15:12:58.031Z,3.03
2018-06-09T15:15:25.476Z,2.90
2018-06-09T15:17:53.795Z,3.40
2018-06-09T15:20:21.356Z,3.30
2018-06-09T15:22:48.928Z,3.40
2018-06-09T15:25:17.537Z,3.87
2018-06-09T15:27:45.797Z,2.87
2018-06-09T15:30:14.028Z,3.60
2018-06-09T15:32:41.541Z,3.70
2018-06-09T15:35:10.527Z,3.30
2018-06-09T15:37:37.971Z,3.30
2018-06-09T15:40:05.448Z,3.50
2018-06-09T15:42:32.908Z,2.93
2018-06-09T15:45:00.367Z,3.57
2018-06-09T15:47:27.819Z,3.43
2018-06-09T15:49:55.282Z,2.83
2018-06-09T15:52:22.764Z,3.13
2018-06-09T15:54:50.325Z,3.83
2018-06-09T15:57:17.887Z,3.23
2018-06-09T15:59:46.392Z,3.33
2018-06-09T16:02:15.482Z,3.00
2018-06-09T16:04:42.949Z,3.17
2018-06-09T16:07:11.920Z,3.20
2018-06-09T16:09:39.497Z,3.83
2018-06-09T16:12:07.063Z,3.27
2018-06-09T16:14:34.548Z,3.00
2018-06-09T16:17:02.033Z,3.90
2018-06-09T16:19:29.488Z,3.17
2018-06-09T16:21:57.815Z,3.50
2018-06-09T16:24:25.271Z,3.07
2018-06-09T16:26:52.742Z,3.33
2018-06-09T16:29:20.243Z,3.00
2018-06-09T16:31:49.215Z,3.73
2018-06-09T16:34:18.193Z,3.23
2018-06-09T16:36:45.651Z,3.27
2018-06-09T16:39:14.239Z,3.13
2018-06-09T16:41:41.709Z,3.50
2018-06-09T16:44:10.401Z,4.00
2018-06-09T16:46:37.876Z,3.33
2018-06-09T16:49:05.352Z,3.40
2018-06-09T16:51:32.828Z,4.07
2018-06-09T16:54:01.066Z,3.10
2018-06-09T16:56:28.547Z,3.63
2018-06-09T16:58:56.011Z,3.70
2018-06-09T17:01:24.240Z,3.20
2018-06-09T17:03:51.709Z,3.83
2018-06-09T17:06:19.199Z,3.30
2018-06-09T17:08:46.935Z,3.50
2018-06-09T17:11:14.393Z,3.27
2018-06-09T17:13:42.606Z,5.90
2018-06-09T17:16:10.115Z,4.00
2018-06-09T17:18:37.558Z,3.10
2018-06-09T17:21:05.077Z,3.30
2018-06-09T17:23:32.529Z,3.30
2018-06-09T17:26:00.600Z,3.00
2018-06-09T17:28:28.066Z,3.43
2018-06-09T17:30:55.528Z,2.93
2018-06-09T17:33:22.985Z,3.40
2018-06-09T17:35:50.459Z,3.07
2018-06-09T17:38:17.918Z,3.17
2018-06-09T17:40:45.419Z,3.40
2018-06-09T17:43:12.883Z,3.47
2018-06-09T17:45:41.116Z,3.13
2018-06-09T17:48:08.592Z,3.27
2018-06-09T17:50:36.044Z,3.20
2018-06-09T17:53:03.541Z,3.83
2018-06-09T17:55:31.013Z,3.60
2018-06-09T17:57:59.968Z,3.20
2018-06-09T18:00:28.572Z,3.27
2018-06-09T18:02:56.030Z,3.23
2018-06-09T18:05:23.514Z,3.33
2018-06-09T18:07:50.993Z,3.47
2018-06-09T18:10:18.543Z,3.23
2018-06-09T18:12:46.116Z,3.77
2018-06-09T18:15:15.088Z,3.00
2018-06-09T18:17:42.547Z,3.70
2018-06-09T18:20:10.028Z,3.67
2018-06-09T18:22:37.608Z,3.37
2018-06-09T18:25:06.556Z,3.10
2018-06-09T18:27:34.014Z,3.90
2018-06-09T18:30:01.482Z,3.20
2018-06-09T18:32:28.979Z,3.43
2018-06-09T18:34:56.447Z,3.33
2018-06-09T18:37:24.669Z,3.03
2018-06-09T18:39:52.178Z,2.77
2018-06-09T18:42:19.636Z,3.40
2018-06-09T18:44:47.205Z,3.33
2018-06-09T18:47:14.671Z,3.37
2018-06-09T18:49:42.933Z,3.37
2018-06-09T18:52:10.419Z,3.27
2018-06-09T18:54:38.655Z,3.20
2018-06-09T18:57:06.131Z,3.63
2018-06-09T18:59:33.595Z,4.17
2018-06-09T19:02:01.073Z,4.60
2018-06-09T19:04:28.537Z,3.53
2018-06-09T19:06:56.007Z,3.73
2018-06-09T19:09:24.964Z,3.73
2018-06-09T19:11:52.443Z,3.70
2018-06-09T19:14:19.922Z,3.47
2018-06-09T19:16:47.383Z,3.57
2018-06-09T19:19:14.941Z,3.37
2018-06-09T19:21:42.444Z,3.73
2018-06-09T19:24:10.674Z,3.00
2018-06-09T19:26:38.143Z,3.67
2018-06-09T19:29:05.604Z,3.37
2018-06-09T19:31:33.060Z,3.30
2018-06-09T19:34:00.532Z,3.60
2018-06-09T19:36:27.991Z,3.60
2018-06-09T19:38:56.092Z,3.47
2018-06-09T19:41:23.537Z,3.57
2018-06-09T19:43:50.990Z,3.33
2018-06-09T19:46:18.501Z,3.27
2018-06-09T19:48:46.799Z,3.33
2018-06-09T19:51:14.269Z,3.60
2018-06-09T19:53:41.729Z,3.43
2018-06-09T19:56:09.236Z,3.70
2018-06-09T19:58:36.793Z,3.23
2018-06-09T20:01:04.284Z,3.53
2018-06-09T20:03:31.827Z,4.00
2018-06-09T20:06:00.895Z,3.60
2018-06-09T20:08:28.348Z,3.03
2018-06-09T20:10:55.808Z,3.93
2018-06-09T20:13:23.301Z,3.30
2018-06-09T20:15:50.752Z,3.50
2018-06-09T20:18:18.224Z,3.47
2018-06-09T20:20:45.693Z,3.70
2018-06-09T20:23:13.143Z,3.43
2018-06-09T20:25:40.721Z,3.23
2018-06-09T20:28:08.189Z,3.60
2018-06-09T20:30:36.435Z,3.00
2018-06-09T20:33:03.893Z,3.57
2018-06-09T20:35:31.354Z,3.20
2018-06-09T20:37:58.828Z,3.77
2018-06-09T20:40:26.309Z,3.77
2018-06-09T20:42:53.768Z,3.00
2018-06-09T20:45:21.752Z,3.47
2018-06-09T20:47:50.724Z,3.43
2018-06-09T20:50:18.188Z,3.27
2018-06-09T20:52:45.648Z,3.53
2018-06-09T20:55:13.111Z,3.53
2018-06-09T20:57:40.569Z,3.13
2018-06-09T21:00:08.812Z,3.40
2018-06-09T21:02:37.023Z,4.37
2018-06-09T21:05:04.499Z,3.90
2018-06-09T21:07:32.107Z,3.20
2018-06-09T21:10:00.332Z,3.67
2018-06-09T21:12:27.798Z,3.47
2018-06-09T21:14:55.262Z,3.47
2018-06-09T21:17:22.747Z,4.70
2018-06-09T21:19:50.213Z,3.90
2018-06-09T21:22:17.671Z,3.83
2018-06-09T21:24:46.625Z,3.47
2018-06-09T21:27:14.088Z,3.53
2018-06-09T21:29:41.563Z,3.47
2018-06-09T21:32:09.064Z,3.00
2018-06-09T21:37:41.740Z,3.83
2018-06-09T21:40:09.983Z,2.87
2018-06-09T21:42:37.451Z,3.20
2018-06-09T21:45:04.903Z,3.30
2018-06-09T21:47:32.350Z,3.63
2018-06-09T21:49:59.830Z,3.63
2018-06-09T21:52:27.274Z,3.77
2018-06-09T21:54:54.741Z,3.40
2018-06-09T21:57:22.284Z,4.07
2018-06-09T21:59:50.503Z,3.53
2018-06-09T22:02:17.983Z,3.67
2018-06-09T22:04:45.561Z,3.37
2018-06-09T22:07:14.186Z,3.50
2018-06-09T22:09:41.914Z,3.90
2018-06-09T22:12:09.472Z,3.23
2018-06-09T22:14:36.973Z,3.80
2018-06-09T22:17:05.196Z,3.80
2018-06-09T22:19:32.652Z,3.57
2018-06-09T22:22:00.154Z,3.50
2018-06-09T22:24:27.583Z,3.73
2018-06-09T22:26:55.060Z,3.80
2018-06-09T22:29:22.526Z,3.63
2018-06-09T22:31:50.088Z,3.30
2018-06-09T22:34:17.652Z,3.90
2018-06-09T22:36:45.105Z,3.60
2018-06-09T22:39:12.574Z,3.73
2018-06-09T22:41:40.055Z,3.57
2018-06-09T22:44:07.607Z,3.33
2018-06-09T22:46:36.603Z,3.53
2018-06-09T22:49:04.068Z,3.47
2018-06-09T22:51:31.634Z,3.30
2018-06-09T22:53:59.101Z,3.30
2018-06-09T22:56:26.555Z,3.90
2018-06-09T22:58:54.023Z,3.87
2018-06-09T23:01:21.488Z,3.50
2018-06-09T23:03:49.755Z,4.17
2018-06-09T23:06:17.317Z,4.93
2018-06-09T23:08:44.783Z,3.90
2018-06-09T23:11:12.256Z,4.10
2018-06-09T23:13:41.624Z,3.93
2018-06-09T23:16:09.072Z,4.50
2018-06-09T23:18:36.544Z,3.93
2018-06-09T23:21:03.997Z,4.67
2018-06-09T23:23:31.447Z,3.83
2018-06-09T23:25:58.913Z,3.73
2018-06-09T23:28:26.373Z,3.73
2018-06-09T23:30:53.840Z,3.63
2018-06-09T23:33:21.287Z,4.40
2018-06-09T23:35:48.759Z,3.87
2018-06-09T23:38:16.278Z,4.07
2018-06-09T23:40:44.506Z,3.40
2018-06-09T23:43:11.963Z,3.80
2018-06-09T23:45:39.427Z,3.70
2018-06-09T23:48:06.898Z,3.80
2018-06-09T23:50:34.358Z,4.00
2018-06-09T23:53:01.827Z,4.37
2018-06-09T23:55:29.283Z,3.77
2018-06-09T23:57:56.745Z,3.70
